首页
METAR-TAF:

METAR-TAF

机场 :

阿尔及尔胡阿里·布迈丁机场

阿爾及爾, 阿尔及利亚

纬度: 36-43N, 经度: 003-15E, 海拔: 25米

当前天气观测

该预报发布于39分钟前的23:30 UTC
风速2节,风向多变
温度 19°C
湿度 94%
气压 1019 hPa
能見度: 8000
少量云层高于1500英尺

METAR: DAAG 192330Z VRB02KT 8000 FEW015 19/18 Q1019

时间: 01:09 (00:09 UTC)

预报

该预报发布于1小时和9分钟前的23:00 UTC
预报有效从20日的 00点(UTC)到 20日的 24点(UTC)
风速2节,风向多变
能見度: 8000
少量云层高于1500英尺
几率 30% :
短暂存在
从 20日的 00点(UTC)到 20日的 06点(UTC)
能見度: 4000
多云层高于1500英尺
轻雾
成为
从 20日的 07点(UTC)到 20日的 10点(UTC)
风速10节,风向北转东北
几率 30% :
短暂存在
从 20日的 10点(UTC)到 20日的 16点(UTC)
少量云层高于2600英尺, 塔状积云.
成为
从 20日的 18点(UTC)到 20日的 21点(UTC)
风速2节,风向多变

TAF: DAAG 192300Z 2000/2024 VRB02KT 8000 FEW015 PROB30 TEMPO 2000/2006 4000 BR BKN015 BECMG 2007/2010 03010KT PROB30 TEMPO 2010/2016 FEW026TCU BECMG 2018/2021 VRB02KT

超过4000个机场的气象观测和天气预报(METAR&TAF报告)。

可查询的气象台以黄色和红色小点在地图上表示。

将鼠标移到小点上方,可查看气象台名称。

然后点击查看天气观测和预报。

如需切换地图:点击带黑十字的绿色按钮放大地图;点击带横线的绿色按钮缩小地图;或者点击绿色箭头查看邻近地区的地图。


METAR-TAF: